sensor_id;sensor_type;location;lat;lon;timestamp;P1;durP1;ratioP1;P2;durP2;ratioP2
67041;SDS011;53949;47.790;18.750;2024-03-17T00:01:29;2.25;;;1.40;;
67041;SDS011;53949;47.790;18.750;2024-03-17T00:04:32;2.45;;;1.42;;
67041;SDS011;53949;47.790;18.750;2024-03-17T00:07:34;1.35;;;1.25;;
67041;SDS011;53949;47.790;18.750;2024-03-17T00:10:37;1.73;;;1.50;;
67041;SDS011;53949;47.790;18.750;2024-03-17T00:13:40;1.45;;;1.20;;
67041;SDS011;53949;47.790;18.750;2024-03-17T00:16:43;1.40;;;1.30;;
67041;SDS011;53949;47.790;18.750;2024-03-17T00:19:47;2.62;;;1.50;;
67041;SDS011;53949;47.790;18.750;2024-03-17T00:22:50;2.55;;;1.30;;
67041;SDS011;53949;47.790;18.750;2024-03-17T00:25:55;1.25;;;1.15;;
67041;SDS011;53949;47.790;18.750;2024-03-17T00:28:57;1.40;;;1.30;;
67041;SDS011;53949;47.790;18.750;2024-03-17T00:31:59;1.37;;;1.27;;
67041;SDS011;53949;47.790;18.750;2024-03-17T00:35:01;1.60;;;1.40;;
67041;SDS011;53949;47.790;18.750;2024-03-17T00:38:04;1.30;;;1.20;;
67041;SDS011;53949;47.790;18.750;2024-03-17T00:41:12;1.65;;;1.50;;
67041;SDS011;53949;47.790;18.750;2024-03-17T00:44:14;1.98;;;1.10;;
67041;SDS011;53949;47.790;18.750;2024-03-17T00:47:17;1.70;;;1.33;;
67041;SDS011;53949;47.790;18.750;2024-03-17T00:50:19;1.60;;;1.30;;
67041;SDS011;53949;47.790;18.750;2024-03-17T00:53:23;2.05;;;1.30;;
67041;SDS011;53949;47.790;18.750;2024-03-17T00:56:26;1.93;;;1.30;;
67041;SDS011;53949;47.790;18.750;2024-03-17T00:59:30;1.90;;;1.20;;
67041;SDS011;53949;47.790;18.750;2024-03-17T01:02:32;1.50;;;1.40;;
67041;SDS011;53949;47.790;18.750;2024-03-17T01:05:37;1.90;;;1.42;;
67041;SDS011;53949;47.790;18.750;2024-03-17T01:08:43;1.60;;;1.50;;
67041;SDS011;53949;47.790;18.750;2024-03-17T01:11:46;1.37;;;1.27;;
67041;SDS011;53949;47.790;18.750;2024-03-17T01:14:48;1.33;;;1.23;;
67041;SDS011;53949;47.790;18.750;2024-03-17T01:17:50;1.87;;;1.77;;
67041;SDS011;53949;47.790;18.750;2024-03-17T01:20:52;3.20;;;2.03;;
67041;SDS011;53949;47.790;18.750;2024-03-17T01:23:55;1.75;;;1.40;;
67041;SDS011;53949;47.790;18.750;2024-03-17T01:27:00;1.98;;;1.55;;
67041;SDS011;53949;47.790;18.750;2024-03-17T01:30:03;1.80;;;1.70;;
67041;SDS011;53949;47.790;18.750;2024-03-17T01:33:06;1.30;;;1.30;;
67041;SDS011;53949;47.790;18.750;2024-03-17T01:36:11;1.90;;;1.80;;
67041;SDS011;53949;47.790;18.750;2024-03-17T01:39:13;2.12;;;1.73;;
67041;SDS011;53949;47.790;18.750;2024-03-17T01:42:18;2.03;;;1.60;;
67041;SDS011;53949;47.790;18.750;2024-03-17T01:48:30;2.05;;;1.85;;
67041;SDS011;53949;47.790;18.750;2024-03-17T01:51:32;1.80;;;1.55;;
67041;SDS011;53949;47.790;18.750;2024-03-17T01:54:34;1.70;;;1.60;;
67041;SDS011;53949;47.790;18.750;2024-03-17T01:57:37;1.77;;;1.67;;
67041;SDS011;53949;47.790;18.750;2024-03-17T02:00:39;2.37;;;1.90;;
67041;SDS011;53949;47.790;18.750;2024-03-17T02:03:42;2.10;;;1.90;;
67041;SDS011;53949;47.790;18.750;2024-03-17T02:06:44;1.83;;;1.73;;
67041;SDS011;53949;47.790;18.750;2024-03-17T02:09:46;2.37;;;2.00;;
67041;SDS011;53949;47.790;18.750;2024-03-17T02:12:49;2.00;;;1.80;;
67041;SDS011;53949;47.790;18.750;2024-03-17T02:15:51;3.40;;;2.00;;
67041;SDS011;53949;47.790;18.750;2024-03-17T02:18:55;3.78;;;2.40;;
67041;SDS011;53949;47.790;18.750;2024-03-17T02:21:59;2.12;;;1.92;;
67041;SDS011;53949;47.790;18.750;2024-03-17T02:25:02;2.25;;;1.98;;
67041;SDS011;53949;47.790;18.750;2024-03-17T02:28:04;2.20;;;2.00;;
67041;SDS011;53949;47.790;18.750;2024-03-17T02:31:07;2.97;;;1.60;;
67041;SDS011;53949;47.790;18.750;2024-03-17T02:34:10;2.00;;;1.85;;
67041;SDS011;53949;47.790;18.750;2024-03-17T02:37:12;2.80;;;1.90;;
67041;SDS011;53949;47.790;18.750;2024-03-17T02:40:15;2.85;;;2.20;;
67041;SDS011;53949;47.790;18.750;2024-03-17T02:43:17;4.00;;;1.75;;
67041;SDS011;53949;47.790;18.750;2024-03-17T02:46:20;2.33;;;2.00;;
67041;SDS011;53949;47.790;18.750;2024-03-17T02:49:22;3.25;;;1.45;;
67041;SDS011;53949;47.790;18.750;2024-03-17T02:52:26;2.15;;;1.95;;
67041;SDS011;53949;47.790;18.750;2024-03-17T02:55:28;1.75;;;1.65;;
67041;SDS011;53949;47.790;18.750;2024-03-17T02:58:32;2.50;;;1.87;;
67041;SDS011;53949;47.790;18.750;2024-03-17T03:01:36;2.20;;;2.00;;
67041;SDS011;53949;47.790;18.750;2024-03-17T03:04:38;2.22;;;2.00;;
67041;SDS011;53949;47.790;18.750;2024-03-17T03:07:41;2.22;;;1.77;;
67041;SDS011;53949;47.790;18.750;2024-03-17T03:10:44;2.20;;;2.00;;
67041;SDS011;53949;47.790;18.750;2024-03-17T03:13:47;2.10;;;1.90;;
67041;SDS011;53949;47.790;18.750;2024-03-17T03:16:49;2.22;;;1.70;;
67041;SDS011;53949;47.790;18.750;2024-03-17T03:19:51;1.67;;;1.58;;
67041;SDS011;53949;47.790;18.750;2024-03-17T03:22:55;1.83;;;1.73;;
67041;SDS011;53949;47.790;18.750;2024-03-17T03:25:58;1.92;;;1.77;;
67041;SDS011;53949;47.790;18.750;2024-03-17T03:29:04;1.62;;;1.52;;
67041;SDS011;53949;47.790;18.750;2024-03-17T03:32:08;4.45;;;2.00;;
67041;SDS011;53949;47.790;18.750;2024-03-17T03:35:10;2.00;;;1.85;;
67041;SDS011;53949;47.790;18.750;2024-03-17T03:38:13;2.35;;;2.05;;
67041;SDS011;53949;47.790;18.750;2024-03-17T03:41:16;2.47;;;1.80;;
67041;SDS011;53949;47.790;18.750;2024-03-17T03:44:18;2.70;;;2.12;;
67041;SDS011;53949;47.790;18.750;2024-03-17T03:47:20;4.07;;;2.20;;
67041;SDS011;53949;47.790;18.750;2024-03-17T03:50:23;3.65;;;2.47;;
67041;SDS011;53949;47.790;18.750;2024-03-17T03:53:25;3.25;;;2.47;;
67041;SDS011;53949;47.790;18.750;2024-03-17T03:56:27;2.40;;;2.20;;
67041;SDS011;53949;47.790;18.750;2024-03-17T03:59:31;2.70;;;2.30;;
67041;SDS011;53949;47.790;18.750;2024-03-17T04:02:33;4.93;;;2.78;;
67041;SDS011;53949;47.790;18.750;2024-03-17T04:05:36;2.87;;;2.58;;
67041;SDS011;53949;47.790;18.750;2024-03-17T04:08:38;3.28;;;2.42;;
67041;SDS011;53949;47.790;18.750;2024-03-17T04:11:43;3.03;;;2.67;;
67041;SDS011;53949;47.790;18.750;2024-03-17T04:14:45;4.28;;;2.35;;
67041;SDS011;53949;47.790;18.750;2024-03-17T04:17:48;2.45;;;2.17;;
67041;SDS011;53949;47.790;18.750;2024-03-17T04:20:53;2.30;;;2.10;;
67041;SDS011;53949;47.790;18.750;2024-03-17T04:23:55;2.92;;;2.03;;
67041;SDS011;53949;47.790;18.750;2024-03-17T04:26:57;2.45;;;2.00;;
67041;SDS011;53949;47.790;18.750;2024-03-17T04:30:00;2.97;;;2.40;;
67041;SDS011;53949;47.790;18.750;2024-03-17T04:33:02;2.35;;;2.15;;
67041;SDS011;53949;47.790;18.750;2024-03-17T04:36:05;3.80;;;2.72;;
67041;SDS011;53949;47.790;18.750;2024-03-17T04:39:09;3.72;;;2.53;;
67041;SDS011;53949;47.790;18.750;2024-03-17T04:42:12;2.30;;;2.10;;
67041;SDS011;53949;47.790;18.750;2024-03-17T04:45:18;2.87;;;2.03;;
67041;SDS011;53949;47.790;18.750;2024-03-17T04:48:21;2.95;;;2.40;;
67041;SDS011;53949;47.790;18.750;2024-03-17T04:51:23;4.43;;;2.55;;
67041;SDS011;53949;47.790;18.750;2024-03-17T04:54:25;5.37;;;2.83;;
67041;SDS011;53949;47.790;18.750;2024-03-17T04:57:28;2.53;;;1.83;;
67041;SDS011;53949;47.790;18.750;2024-03-17T05:00:30;3.90;;;2.65;;
67041;SDS011;53949;47.790;18.750;2024-03-17T05:03:33;6.60;;;2.37;;
67041;SDS011;53949;47.790;18.750;2024-03-17T05:06:36;2.50;;;2.20;;
67041;SDS011;53949;47.790;18.750;2024-03-17T05:09:39;2.40;;;2.08;;
67041;SDS011;53949;47.790;18.750;2024-03-17T05:12:42;3.10;;;1.95;;
67041;SDS011;53949;47.790;18.750;2024-03-17T05:15:44;2.47;;;1.83;;
67041;SDS011;53949;47.790;18.750;2024-03-17T05:18:48;2.12;;;1.67;;
67041;SDS011;53949;47.790;18.750;2024-03-17T05:21:50;2.47;;;1.62;;
67041;SDS011;53949;47.790;18.750;2024-03-17T05:24:52;1.45;;;1.35;;
67041;SDS011;53949;47.790;18.750;2024-03-17T05:27:55;3.22;;;2.12;;
67041;SDS011;53949;47.790;18.750;2024-03-17T05:30:58;2.83;;;2.08;;
67041;SDS011;53949;47.790;18.750;2024-03-17T05:34:00;3.83;;;2.30;;
67041;SDS011;53949;47.790;18.750;2024-03-17T05:37:02;1.60;;;1.50;;
67041;SDS011;53949;47.790;18.750;2024-03-17T05:40:05;2.40;;;1.98;;
67041;SDS011;53949;47.790;18.750;2024-03-17T05:43:08;2.92;;;2.20;;
67041;SDS011;53949;47.790;18.750;2024-03-17T05:46:12;2.12;;;1.73;;
67041;SDS011;53949;47.790;18.750;2024-03-17T05:49:17;5.40;;;2.40;;
67041;SDS011;53949;47.790;18.750;2024-03-17T05:52:19;5.40;;;2.65;;
67041;SDS011;53949;47.790;18.750;2024-03-17T05:55:22;2.42;;;2.03;;
67041;SDS011;53949;47.790;18.750;2024-03-17T05:58:24;4.03;;;1.70;;
67041;SDS011;53949;47.790;18.750;2024-03-17T06:01:26;1.60;;;1.50;;
67041;SDS011;53949;47.790;18.750;2024-03-17T06:04:29;1.75;;;1.58;;
67041;SDS011;53949;47.790;18.750;2024-03-17T06:07:31;4.87;;;2.12;;
67041;SDS011;53949;47.790;18.750;2024-03-17T06:10:35;4.40;;;2.25;;
67041;SDS011;53949;47.790;18.750;2024-03-17T06:13:38;2.20;;;2.00;;
67041;SDS011;53949;47.790;18.750;2024-03-17T06:16:41;3.05;;;1.77;;
67041;SDS011;53949;47.790;18.750;2024-03-17T06:19:45;2.65;;;1.60;;
67041;SDS011;53949;47.790;18.750;2024-03-17T06:22:49;3.00;;;2.05;;
67041;SDS011;53949;47.790;18.750;2024-03-17T06:25:51;2.00;;;1.67;;
67041;SDS011;53949;47.790;18.750;2024-03-17T06:28:54;2.95;;;2.30;;
67041;SDS011;53949;47.790;18.750;2024-03-17T06:31:56;2.17;;;1.90;;
67041;SDS011;53949;47.790;18.750;2024-03-17T06:35:01;4.30;;;2.05;;
67041;SDS011;53949;47.790;18.750;2024-03-17T06:38:04;2.83;;;1.67;;
67041;SDS011;53949;47.790;18.750;2024-03-17T06:41:06;3.28;;;1.87;;
67041;SDS011;53949;47.790;18.750;2024-03-17T06:44:08;5.68;;;2.05;;
67041;SDS011;53949;47.790;18.750;2024-03-17T06:47:11;3.65;;;1.73;;
67041;SDS011;53949;47.790;18.750;2024-03-17T06:50:13;1.77;;;1.50;;
67041;SDS011;53949;47.790;18.750;2024-03-17T06:53:18;1.48;;;1.20;;
67041;SDS011;53949;47.790;18.750;2024-03-17T06:56:20;2.25;;;1.67;;
67041;SDS011;53949;47.790;18.750;2024-03-17T06:59:24;2.10;;;1.20;;
67041;SDS011;53949;47.790;18.750;2024-03-17T07:02:26;1.77;;;1.42;;
67041;SDS011;53949;47.790;18.750;2024-03-17T07:05:29;2.72;;;1.30;;
67041;SDS011;53949;47.790;18.750;2024-03-17T07:08:33;3.08;;;1.70;;
67041;SDS011;53949;47.790;18.750;2024-03-17T07:11:35;1.67;;;1.58;;
67041;SDS011;53949;47.790;18.750;2024-03-17T07:14:37;2.22;;;1.87;;
67041;SDS011;53949;47.790;18.750;2024-03-17T07:17:40;1.37;;;1.20;;
67041;SDS011;53949;47.790;18.750;2024-03-17T07:20:42;1.52;;;1.42;;
67041;SDS011;53949;47.790;18.750;2024-03-17T07:23:45;6.03;;;2.20;;
67041;SDS011;53949;47.790;18.750;2024-03-17T07:26:50;2.35;;;1.70;;
67041;SDS011;53949;47.790;18.750;2024-03-17T07:29:52;1.90;;;1.62;;
67041;SDS011;53949;47.790;18.750;2024-03-17T07:32:56;2.72;;;2.05;;
67041;SDS011;53949;47.790;18.750;2024-03-17T07:36:01;2.50;;;1.93;;
67041;SDS011;53949;47.790;18.750;2024-03-17T07:39:04;3.83;;;2.15;;
67041;SDS011;53949;47.790;18.750;2024-03-17T07:42:06;2.72;;;1.80;;
67041;SDS011;53949;47.790;18.750;2024-03-17T07:45:08;3.05;;;1.62;;
67041;SDS011;53949;47.790;18.750;2024-03-17T07:48:12;4.50;;;1.75;;
67041;SDS011;53949;47.790;18.750;2024-03-17T07:51:14;4.50;;;2.00;;
67041;SDS011;53949;47.790;18.750;2024-03-17T07:54:18;3.15;;;1.70;;
67041;SDS011;53949;47.790;18.750;2024-03-17T07:57:21;1.90;;;1.33;;
67041;SDS011;53949;47.790;18.750;2024-03-17T08:00:23;3.10;;;1.90;;
67041;SDS011;53949;47.790;18.750;2024-03-17T08:03:26;5.70;;;1.42;;
67041;SDS011;53949;47.790;18.750;2024-03-17T08:06:29;2.60;;;1.92;;
67041;SDS011;53949;47.790;18.750;2024-03-17T08:09:33;1.15;;;1.10;;
67041;SDS011;53949;47.790;18.750;2024-03-17T08:12:35;3.75;;;1.35;;
67041;SDS011;53949;47.790;18.750;2024-03-17T08:15:37;1.42;;;1.33;;
67041;SDS011;53949;47.790;18.750;2024-03-17T08:18:39;4.20;;;1.67;;
67041;SDS011;53949;47.790;18.750;2024-03-17T08:21:42;3.10;;;1.75;;
67041;SDS011;53949;47.790;18.750;2024-03-17T08:24:44;2.37;;;1.23;;
67041;SDS011;53949;47.790;18.750;2024-03-17T08:27:46;3.47;;;2.47;;
67041;SDS011;53949;47.790;18.750;2024-03-17T08:30:55;2.80;;;1.52;;
67041;SDS011;53949;47.790;18.750;2024-03-17T08:33:58;4.70;;;1.77;;
67041;SDS011;53949;47.790;18.750;2024-03-17T08:37:00;1.65;;;1.12;;
67041;SDS011;53949;47.790;18.750;2024-03-17T08:40:02;2.12;;;1.40;;
67041;SDS011;53949;47.790;18.750;2024-03-17T08:43:08;3.72;;;1.25;;
67041;SDS011;53949;47.790;18.750;2024-03-17T08:46:11;1.48;;;1.37;;
67041;SDS011;53949;47.790;18.750;2024-03-17T08:49:15;1.50;;;1.40;;
67041;SDS011;53949;47.790;18.750;2024-03-17T08:52:17;3.65;;;1.60;;
67041;SDS011;53949;47.790;18.750;2024-03-17T08:55:19;1.48;;;1.35;;
67041;SDS011;53949;47.790;18.750;2024-03-17T08:58:22;2.42;;;1.42;;
67041;SDS011;53949;47.790;18.750;2024-03-17T09:01:24;1.62;;;1.50;;
67041;SDS011;53949;47.790;18.750;2024-03-17T09:04:29;6.50;;;1.90;;
67041;SDS011;53949;47.790;18.750;2024-03-17T09:07:31;1.90;;;1.30;;
67041;SDS011;53949;47.790;18.750;2024-03-17T09:10:40;3.05;;;1.60;;
67041;SDS011;53949;47.790;18.750;2024-03-17T09:13:43;2.35;;;1.67;;
67041;SDS011;53949;47.790;18.750;2024-03-17T09:16:46;2.90;;;1.95;;
67041;SDS011;53949;47.790;18.750;2024-03-17T09:19:48;2.35;;;1.77;;
67041;SDS011;53949;47.790;18.750;2024-03-17T09:22:51;3.83;;;1.58;;
67041;SDS011;53949;47.790;18.750;2024-03-17T09:25:57;2.97;;;1.50;;
67041;SDS011;53949;47.790;18.750;2024-03-17T09:29:01;2.62;;;1.55;;
67041;SDS011;53949;47.790;18.750;2024-03-17T09:32:04;2.87;;;1.50;;
67041;SDS011;53949;47.790;18.750;2024-03-17T09:35:08;3.62;;;1.75;;
67041;SDS011;53949;47.790;18.750;2024-03-17T09:38:11;2.87;;;1.30;;
67041;SDS011;53949;47.790;18.750;2024-03-17T09:41:23;3.90;;;1.85;;
67041;SDS011;53949;47.790;18.750;2024-03-17T09:44:26;4.80;;;1.80;;
67041;SDS011;53949;47.790;18.750;2024-03-17T09:47:31;2.12;;;1.27;;
67041;SDS011;53949;47.790;18.750;2024-03-17T09:50:33;3.33;;;1.02;;
67041;SDS011;53949;47.790;18.750;2024-03-17T09:53:36;2.30;;;1.48;;
67041;SDS011;53949;47.790;18.750;2024-03-17T09:56:39;6.78;;;1.67;;
67041;SDS011;53949;47.790;18.750;2024-03-17T09:59:42;3.05;;;1.70;;
67041;SDS011;53949;47.790;18.750;2024-03-17T10:02:45;3.70;;;1.62;;
67041;SDS011;53949;47.790;18.750;2024-03-17T10:05:48;4.07;;;1.42;;
67041;SDS011;53949;47.790;18.750;2024-03-17T10:09:01;2.50;;;1.50;;
67041;SDS011;53949;47.790;18.750;2024-03-17T10:12:05;6.50;;;2.07;;
67041;SDS011;53949;47.790;18.750;2024-03-17T10:15:27;2.87;;;1.50;;
67041;SDS011;53949;47.790;18.750;2024-03-17T10:18:29;4.12;;;1.73;;
67041;SDS011;53949;47.790;18.750;2024-03-17T10:21:33;2.20;;;1.35;;
67041;SDS011;53949;47.790;18.750;2024-03-17T10:24:35;3.08;;;1.70;;
67041;SDS011;53949;47.790;18.750;2024-03-17T10:27:42;3.47;;;1.55;;
67041;SDS011;53949;47.790;18.750;2024-03-17T10:30:59;2.70;;;1.33;;
67041;SDS011;53949;47.790;18.750;2024-03-17T10:34:02;2.87;;;1.52;;
67041;SDS011;53949;47.790;18.750;2024-03-17T10:37:15;5.00;;;2.00;;
67041;SDS011;53949;47.790;18.750;2024-03-17T10:40:22;2.97;;;1.52;;
67041;SDS011;53949;47.790;18.750;2024-03-17T10:43:25;6.00;;;1.52;;
67041;SDS011;53949;47.790;18.750;2024-03-17T10:46:28;1.80;;;1.70;;
67041;SDS011;53949;47.790;18.750;2024-03-17T10:49:32;4.43;;;2.40;;
67041;SDS011;53949;47.790;18.750;2024-03-17T10:52:35;5.30;;;1.60;;
67041;SDS011;53949;47.790;18.750;2024-03-17T10:58:44;2.70;;;1.98;;
67041;SDS011;53949;47.790;18.750;2024-03-17T11:01:54;2.28;;;1.60;;
67041;SDS011;53949;47.790;18.750;2024-03-17T11:04:57;4.55;;;2.42;;
67041;SDS011;53949;47.790;18.750;2024-03-17T11:08:01;5.90;;;1.73;;
67041;SDS011;53949;47.790;18.750;2024-03-17T11:11:04;3.12;;;2.15;;
67041;SDS011;53949;47.790;18.750;2024-03-17T11:14:18;3.50;;;2.10;;
67041;SDS011;53949;47.790;18.750;2024-03-17T11:17:21;4.35;;;2.45;;
67041;SDS011;53949;47.790;18.750;2024-03-17T11:20:25;4.97;;;2.12;;
67041;SDS011;53949;47.790;18.750;2024-03-17T11:23:30;2.03;;;1.55;;
67041;SDS011;53949;47.790;18.750;2024-03-17T11:26:33;3.70;;;1.75;;
67041;SDS011;53949;47.790;18.750;2024-03-17T11:29:37;4.03;;;2.00;;
67041;SDS011;53949;47.790;18.750;2024-03-17T11:32:42;3.45;;;1.98;;
67041;SDS011;53949;47.790;18.750;2024-03-17T11:35:45;2.55;;;1.80;;
67041;SDS011;53949;47.790;18.750;2024-03-17T11:39:00;3.08;;;1.80;;
67041;SDS011;53949;47.790;18.750;2024-03-17T11:42:06;2.42;;;2.10;;
67041;SDS011;53949;47.790;18.750;2024-03-17T11:45:16;4.03;;;1.95;;
67041;SDS011;53949;47.790;18.750;2024-03-17T11:48:23;1.98;;;1.40;;
67041;SDS011;53949;47.790;18.750;2024-03-17T11:51:25;2.17;;;1.58;;
67041;SDS011;53949;47.790;18.750;2024-03-17T11:54:28;4.80;;;1.92;;
67041;SDS011;53949;47.790;18.750;2024-03-17T11:57:32;3.22;;;1.12;;
67041;SDS011;53949;47.790;18.750;2024-03-17T12:00:37;3.50;;;1.23;;
67041;SDS011;53949;47.790;18.750;2024-03-17T12:03:41;3.92;;;1.30;;
67041;SDS011;53949;47.790;18.750;2024-03-17T12:06:51;7.00;;;1.77;;
67041;SDS011;53949;47.790;18.750;2024-03-17T12:09:54;1.85;;;1.20;;
67041;SDS011;53949;47.790;18.750;2024-03-17T12:12:59;1.95;;;1.08;;
67041;SDS011;53949;47.790;18.750;2024-03-17T12:16:14;1.30;;;1.20;;
67041;SDS011;53949;47.790;18.750;2024-03-17T12:19:17;3.45;;;1.20;;
67041;SDS011;53949;47.790;18.750;2024-03-17T12:22:24;1.77;;;1.60;;
67041;SDS011;53949;47.790;18.750;2024-03-17T12:25:27;1.50;;;1.40;;
67041;SDS011;53949;47.790;18.750;2024-03-17T12:28:31;3.35;;;1.40;;
67041;SDS011;53949;47.790;18.750;2024-03-17T12:31:33;3.87;;;1.33;;
67041;SDS011;53949;47.790;18.750;2024-03-17T12:34:35;2.15;;;1.27;;
67041;SDS011;53949;47.790;18.750;2024-03-17T12:37:38;4.47;;;1.12;;
67041;SDS011;53949;47.790;18.750;2024-03-17T12:40:41;1.35;;;1.02;;
67041;SDS011;53949;47.790;18.750;2024-03-17T12:43:49;4.03;;;1.10;;
67041;SDS011;53949;47.790;18.750;2024-03-17T12:46:56;1.45;;;0.80;;
67041;SDS011;53949;47.790;18.750;2024-03-17T12:49:59;2.12;;;1.20;;
67041;SDS011;53949;47.790;18.750;2024-03-17T12:53:02;1.20;;;1.00;;
67041;SDS011;53949;47.790;18.750;2024-03-17T12:56:04;1.20;;;0.95;;
67041;SDS011;53949;47.790;18.750;2024-03-17T12:59:25;1.90;;;1.05;;
67041;SDS011;53949;47.790;18.750;2024-03-17T13:02:58;2.33;;;0.93;;
67041;SDS011;53949;47.790;18.750;2024-03-17T13:06:01;1.80;;;1.10;;
67041;SDS011;53949;47.790;18.750;2024-03-17T13:09:11;2.12;;;1.23;;
67041;SDS011;53949;47.790;18.750;2024-03-17T13:12:14;1.37;;;1.27;;
67041;SDS011;53949;47.790;18.750;2024-03-17T13:15:19;4.10;;;1.15;;
67041;SDS011;53949;47.790;18.750;2024-03-17T13:18:22;2.95;;;1.30;;
67041;SDS011;53949;47.790;18.750;2024-03-17T13:21:24;1.27;;;1.00;;
67041;SDS011;53949;47.790;18.750;2024-03-17T13:24:27;0.70;;;0.70;;
67041;SDS011;53949;47.790;18.750;2024-03-17T13:27:29;1.40;;;1.17;;
67041;SDS011;53949;47.790;18.750;2024-03-17T13:30:31;1.50;;;1.40;;
67041;SDS011;53949;47.790;18.750;2024-03-17T13:33:35;2.95;;;1.17;;
67041;SDS011;53949;47.790;18.750;2024-03-17T13:36:37;3.00;;;1.20;;
67041;SDS011;53949;47.790;18.750;2024-03-17T13:39:41;2.55;;;1.40;;
67041;SDS011;53949;47.790;18.750;2024-03-17T13:42:43;2.97;;;0.90;;
67041;SDS011;53949;47.790;18.750;2024-03-17T13:45:47;1.70;;;1.42;;
67041;SDS011;53949;47.790;18.750;2024-03-17T13:48:51;2.22;;;1.33;;
67041;SDS011;53949;47.790;18.750;2024-03-17T13:51:59;1.92;;;1.15;;
67041;SDS011;53949;47.790;18.750;2024-03-17T13:55:02;3.40;;;1.30;;
67041;SDS011;53949;47.790;18.750;2024-03-17T13:58:08;1.62;;;1.10;;
67041;SDS011;53949;47.790;18.750;2024-03-17T14:01:11;2.10;;;1.30;;
67041;SDS011;53949;47.790;18.750;2024-03-17T14:04:15;3.40;;;1.50;;
67041;SDS011;53949;47.790;18.750;2024-03-17T14:07:18;2.55;;;1.25;;
67041;SDS011;53949;47.790;18.750;2024-03-17T14:10:22;1.50;;;1.37;;
67041;SDS011;53949;47.790;18.750;2024-03-17T14:13:27;2.47;;;1.17;;
67041;SDS011;53949;47.790;18.750;2024-03-17T14:16:30;5.03;;;1.70;;
67041;SDS011;53949;47.790;18.750;2024-03-17T14:19:35;1.52;;;1.00;;
67041;SDS011;53949;47.790;18.750;2024-03-17T14:22:38;1.60;;;1.30;;
67041;SDS011;53949;47.790;18.750;2024-03-17T14:25:43;3.17;;;1.17;;
67041;SDS011;53949;47.790;18.750;2024-03-17T14:28:45;2.00;;;1.20;;
67041;SDS011;53949;47.790;18.750;2024-03-17T14:31:48;3.22;;;1.30;;
67041;SDS011;53949;47.790;18.750;2024-03-17T14:34:51;3.15;;;1.20;;
67041;SDS011;53949;47.790;18.750;2024-03-17T14:37:53;1.35;;;1.10;;
67041;SDS011;53949;47.790;18.750;2024-03-17T14:40:58;2.50;;;1.30;;
67041;SDS011;53949;47.790;18.750;2024-03-17T14:44:00;2.55;;;1.35;;
67041;SDS011;53949;47.790;18.750;2024-03-17T14:47:03;3.45;;;1.20;;
67041;SDS011;53949;47.790;18.750;2024-03-17T14:50:06;2.30;;;1.30;;
67041;SDS011;53949;47.790;18.750;2024-03-17T14:53:09;2.97;;;1.70;;
67041;SDS011;53949;47.790;18.750;2024-03-17T14:56:12;2.25;;;1.30;;
67041;SDS011;53949;47.790;18.750;2024-03-17T14:59:16;1.77;;;1.30;;
67041;SDS011;53949;47.790;18.750;2024-03-17T15:02:20;2.80;;;1.43;;
67041;SDS011;53949;47.790;18.750;2024-03-17T15:05:23;4.72;;;1.75;;
67041;SDS011;53949;47.790;18.750;2024-03-17T15:08:27;2.20;;;1.45;;
67041;SDS011;53949;47.790;18.750;2024-03-17T15:11:30;2.00;;;1.48;;
67041;SDS011;53949;47.790;18.750;2024-03-17T15:14:34;1.77;;;1.10;;
67041;SDS011;53949;47.790;18.750;2024-03-17T15:17:36;2.40;;;1.50;;
67041;SDS011;53949;47.790;18.750;2024-03-17T15:20:38;4.82;;;1.73;;
67041;SDS011;53949;47.790;18.750;2024-03-17T15:23:42;2.15;;;1.55;;
67041;SDS011;53949;47.790;18.750;2024-03-17T15:26:44;2.97;;;1.92;;
67041;SDS011;53949;47.790;18.750;2024-03-17T15:29:48;4.72;;;1.77;;
67041;SDS011;53949;47.790;18.750;2024-03-17T15:32:50;3.58;;;2.00;;
67041;SDS011;53949;47.790;18.750;2024-03-17T15:35:56;1.98;;;1.73;;
67041;SDS011;53949;47.790;18.750;2024-03-17T15:38:58;3.58;;;1.98;;
67041;SDS011;53949;47.790;18.750;2024-03-17T15:42:02;7.43;;;2.15;;
67041;SDS011;53949;47.790;18.750;2024-03-17T15:45:04;2.75;;;1.95;;
67041;SDS011;53949;47.790;18.750;2024-03-17T15:48:09;4.03;;;1.75;;
67041;SDS011;53949;47.790;18.750;2024-03-17T15:51:12;2.85;;;1.20;;
67041;SDS011;53949;47.790;18.750;2024-03-17T15:54:14;2.25;;;1.30;;
67041;SDS011;53949;47.790;18.750;2024-03-17T15:57:18;2.92;;;1.30;;
67041;SDS011;53949;47.790;18.750;2024-03-17T16:00:20;2.33;;;1.73;;
67041;SDS011;53949;47.790;18.750;2024-03-17T16:03:23;2.87;;;1.70;;
67041;SDS011;53949;47.790;18.750;2024-03-17T16:06:30;6.03;;;2.20;;
67041;SDS011;53949;47.790;18.750;2024-03-17T16:09:33;2.62;;;1.77;;
67041;SDS011;53949;47.790;18.750;2024-03-17T16:12:35;1.62;;;1.33;;
67041;SDS011;53949;47.790;18.750;2024-03-17T16:15:38;2.00;;;1.62;;
67041;SDS011;53949;47.790;18.750;2024-03-17T16:18:41;3.78;;;1.95;;
67041;SDS011;53949;47.790;18.750;2024-03-17T16:21:43;3.83;;;1.73;;
67041;SDS011;53949;47.790;18.750;2024-03-17T16:24:46;1.90;;;1.67;;
67041;SDS011;53949;47.790;18.750;2024-03-17T16:27:50;2.33;;;1.90;;
67041;SDS011;53949;47.790;18.750;2024-03-17T16:30:55;4.00;;;1.77;;
67041;SDS011;53949;47.790;18.750;2024-03-17T16:33:58;4.28;;;1.87;;
67041;SDS011;53949;47.790;18.750;2024-03-17T16:37:04;6.05;;;2.05;;
67041;SDS011;53949;47.790;18.750;2024-03-17T16:40:07;2.42;;;1.90;;
67041;SDS011;53949;47.790;18.750;2024-03-17T16:43:12;6.53;;;2.20;;
67041;SDS011;53949;47.790;18.750;2024-03-17T16:49:50;4.10;;;1.58;;
67041;SDS011;53949;47.790;18.750;2024-03-17T16:52:52;3.40;;;1.85;;
67041;SDS011;53949;47.790;18.750;2024-03-17T16:55:55;4.90;;;2.03;;
67041;SDS011;53949;47.790;18.750;2024-03-17T16:58:57;4.28;;;1.58;;
67041;SDS011;53949;47.790;18.750;2024-03-17T17:02:00;3.22;;;1.90;;
67041;SDS011;53949;47.790;18.750;2024-03-17T17:05:12;7.74;;;2.26;;
67041;SDS011;53949;47.790;18.750;2024-03-17T17:08:15;4.40;;;2.92;;
67041;SDS011;53949;47.790;18.750;2024-03-17T17:11:17;4.75;;;2.30;;
67041;SDS011;53949;47.790;18.750;2024-03-17T17:14:20;3.42;;;2.20;;
67041;SDS011;53949;47.790;18.750;2024-03-17T17:17:24;4.50;;;2.60;;
67041;SDS011;53949;47.790;18.750;2024-03-17T17:20:26;7.72;;;2.97;;
67041;SDS011;53949;47.790;18.750;2024-03-17T17:23:35;4.72;;;2.72;;
67041;SDS011;53949;47.790;18.750;2024-03-17T17:26:37;5.68;;;3.12;;
67041;SDS011;53949;47.790;18.750;2024-03-17T17:29:41;7.20;;;2.78;;
67041;SDS011;53949;47.790;18.750;2024-03-17T17:32:43;4.53;;;2.67;;
67041;SDS011;53949;47.790;18.750;2024-03-17T17:35:47;3.78;;;2.55;;
67041;SDS011;53949;47.790;18.750;2024-03-17T17:38:49;8.73;;;3.78;;
67041;SDS011;53949;47.790;18.750;2024-03-17T17:41:52;5.43;;;3.15;;
67041;SDS011;53949;47.790;18.750;2024-03-17T17:44:54;6.80;;;3.33;;
67041;SDS011;53949;47.790;18.750;2024-03-17T17:47:56;11.93;;;4.10;;
67041;SDS011;53949;47.790;18.750;2024-03-17T17:50:59;8.05;;;3.33;;
67041;SDS011;53949;47.790;18.750;2024-03-17T17:54:02;6.95;;;3.85;;
67041;SDS011;53949;47.790;18.750;2024-03-17T17:57:04;5.75;;;3.42;;
67041;SDS011;53949;47.790;18.750;2024-03-17T18:00:08;4.78;;;3.20;;
67041;SDS011;53949;47.790;18.750;2024-03-17T18:03:12;4.65;;;3.00;;
67041;SDS011;53949;47.790;18.750;2024-03-17T18:06:14;3.72;;;2.42;;
67041;SDS011;53949;47.790;18.750;2024-03-17T18:09:18;5.45;;;2.65;;
67041;SDS011;53949;47.790;18.750;2024-03-17T18:12:24;4.95;;;2.78;;
67041;SDS011;53949;47.790;18.750;2024-03-17T18:15:26;4.55;;;2.65;;
67041;SDS011;53949;47.790;18.750;2024-03-17T18:18:29;7.00;;;2.67;;